sensor_id;sensor_type;location;lat;lon;timestamp;pressure;altitude;pressure_sealevel;temperature;humidity
50933;BME280;36921;49.006;9.292;2022-08-21T00:01:13;98828.06;;;13.23;100.00
50933;BME280;36921;49.006;9.292;2022-08-21T00:03:39;98824.31;;;13.18;100.00
50933;BME280;36921;49.006;9.292;2022-08-21T00:06:06;98823.94;;;13.14;100.00
50933;BME280;36921;49.006;9.292;2022-08-21T00:08:31;98827.13;;;13.04;100.00
50933;BME280;36921;49.006;9.292;2022-08-21T00:10:57;98825.56;;;13.15;100.00
50933;BME280;36921;49.006;9.292;2022-08-21T00:13:22;98826.03;;;13.12;100.00
50933;BME280;36921;49.006;9.292;2022-08-21T00:15:48;98824.38;;;13.11;100.00
50933;BME280;36921;49.006;9.292;2022-08-21T00:18:15;98825.91;;;13.00;100.00
50933;BME280;36921;49.006;9.292;2022-08-21T00:20:42;98822.38;;;13.00;100.00
50933;BME280;36921;49.006;9.292;2022-08-21T00:23:08;98822.81;;;12.90;100.00
50933;BME280;36921;49.006;9.292;2022-08-21T00:25:34;98822.66;;;12.85;100.00
50933;BME280;36921;49.006;9.292;2022-08-21T00:27:59;98821.38;;;12.87;100.00
50933;BME280;36921;49.006;9.292;2022-08-21T00:30:27;98819.50;;;12.88;100.00
50933;BME280;36921;49.006;9.292;2022-08-21T00:32:54;98809.47;;;12.88;100.00
50933;BME280;36921;49.006;9.292;2022-08-21T00:35:24;98815.94;;;12.87;100.00
50933;BME280;36921;49.006;9.292;2022-08-21T00:37:50;98807.84;;;12.81;100.00
50933;BME280;36921;49.006;9.292;2022-08-21T00:40:22;98814.59;;;12.71;100.00
50933;BME280;36921;49.006;9.292;2022-08-21T00:42:48;98816.28;;;12.66;100.00
50933;BME280;36921;49.006;9.292;2022-08-21T00:45:15;98820.47;;;12.62;100.00
50933;BME280;36921;49.006;9.292;2022-08-21T00:47:40;98814.00;;;12.63;100.00
50933;BME280;36921;49.006;9.292;2022-08-21T00:50:10;98808.53;;;12.69;100.00
50933;BME280;36921;49.006;9.292;2022-08-21T00:52:37;98800.44;;;12.63;100.00
50933;BME280;36921;49.006;9.292;2022-08-21T00:55:04;98807.78;;;12.56;100.00
50933;BME280;36921;49.006;9.292;2022-08-21T00:57:36;98808.81;;;12.55;100.00
50933;BME280;36921;49.006;9.292;2022-08-21T01:00:08;98818.00;;;12.60;100.00
50933;BME280;36921;49.006;9.292;2022-08-21T01:02:34;98806.25;;;12.66;100.00
50933;BME280;36921;49.006;9.292;2022-08-21T01:05:00;98805.88;;;12.63;100.00
50933;BME280;36921;49.006;9.292;2022-08-21T01:07:25;98807.53;;;12.57;100.00
50933;BME280;36921;49.006;9.292;2022-08-21T01:09:51;98819.25;;;12.51;100.00
50933;BME280;36921;49.006;9.292;2022-08-21T01:12:17;98809.84;;;12.54;100.00
50933;BME280;36921;49.006;9.292;2022-08-21T01:14:44;98816.38;;;12.46;100.00
50933;BME280;36921;49.006;9.292;2022-08-21T01:17:12;98817.63;;;12.43;100.00
50933;BME280;36921;49.006;9.292;2022-08-21T01:19:39;98812.63;;;12.40;100.00
50933;BME280;36921;49.006;9.292;2022-08-21T01:22:05;98805.38;;;12.34;100.00
50933;BME280;36921;49.006;9.292;2022-08-21T01:24:31;98810.38;;;12.31;100.00
50933;BME280;36921;49.006;9.292;2022-08-21T01:26:58;98806.44;;;12.20;100.00
50933;BME280;36921;49.006;9.292;2022-08-21T01:29:36;98806.88;;;12.17;100.00
50933;BME280;36921;49.006;9.292;2022-08-21T01:32:06;98811.66;;;12.15;100.00
50933;BME280;36921;49.006;9.292;2022-08-21T01:34:34;98812.97;;;12.05;100.00
50933;BME280;36921;49.006;9.292;2022-08-21T01:37:01;98815.69;;;12.05;100.00
50933;BME280;36921;49.006;9.292;2022-08-21T01:39:26;98815.06;;;12.03;100.00
50933;BME280;36921;49.006;9.292;2022-08-21T01:41:52;98815.88;;;12.04;100.00
50933;BME280;36921;49.006;9.292;2022-08-21T01:44:21;98806.53;;;11.93;100.00
50933;BME280;36921;49.006;9.292;2022-08-21T01:46:46;98810.06;;;12.00;100.00
50933;BME280;36921;49.006;9.292;2022-08-21T01:49:12;98812.53;;;12.09;100.00
50933;BME280;36921;49.006;9.292;2022-08-21T01:51:37;98812.69;;;12.20;100.00
50933;BME280;36921;49.006;9.292;2022-08-21T01:54:02;98806.47;;;12.13;100.00
50933;BME280;36921;49.006;9.292;2022-08-21T01:56:28;98805.63;;;12.19;100.00
50933;BME280;36921;49.006;9.292;2022-08-21T01:58:53;98804.41;;;12.09;100.00
50933;BME280;36921;49.006;9.292;2022-08-21T02:01:19;98802.31;;;12.11;100.00
50933;BME280;36921;49.006;9.292;2022-08-21T02:03:44;98796.47;;;12.07;100.00
50933;BME280;36921;49.006;9.292;2022-08-21T02:06:13;98793.94;;;12.12;100.00
50933;BME280;36921;49.006;9.292;2022-08-21T02:08:40;98794.38;;;12.02;100.00
50933;BME280;36921;49.006;9.292;2022-08-21T02:11:06;98790.66;;;12.03;100.00
50933;BME280;36921;49.006;9.292;2022-08-21T02:13:31;98794.63;;;11.94;100.00
50933;BME280;36921;49.006;9.292;2022-08-21T02:15:56;98792.56;;;11.90;100.00
50933;BME280;36921;49.006;9.292;2022-08-21T02:18:22;98798.78;;;11.83;100.00
50933;BME280;36921;49.006;9.292;2022-08-21T02:20:49;98787.75;;;11.85;100.00
50933;BME280;36921;49.006;9.292;2022-08-21T02:23:15;98789.44;;;11.79;100.00
50933;BME280;36921;49.006;9.292;2022-08-21T02:25:41;98780.47;;;11.79;100.00
50933;BME280;36921;49.006;9.292;2022-08-21T02:28:10;98789.22;;;11.68;100.00
50933;BME280;36921;49.006;9.292;2022-08-21T02:30:41;98781.88;;;11.81;100.00
50933;BME280;36921;49.006;9.292;2022-08-21T02:33:07;98781.28;;;11.86;100.00
50933;BME280;36921;49.006;9.292;2022-08-21T02:35:35;98782.75;;;11.89;100.00
50933;BME280;36921;49.006;9.292;2022-08-21T02:38:04;98776.25;;;12.03;100.00
50933;BME280;36921;49.006;9.292;2022-08-21T02:40:35;98781.06;;;11.94;100.00
50933;BME280;36921;49.006;9.292;2022-08-21T02:43:03;98787.53;;;11.80;100.00
50933;BME280;36921;49.006;9.292;2022-08-21T02:45:29;98786.09;;;11.71;100.00
50933;BME280;36921;49.006;9.292;2022-08-21T02:48:01;98779.03;;;11.56;100.00
50933;BME280;36921;49.006;9.292;2022-08-21T02:50:32;98782.59;;;11.50;100.00
50933;BME280;36921;49.006;9.292;2022-08-21T02:52:58;98787.16;;;11.43;100.00
50933;BME280;36921;49.006;9.292;2022-08-21T02:55:29;98779.88;;;11.44;100.00
50933;BME280;36921;49.006;9.292;2022-08-21T02:57:56;98789.06;;;11.43;100.00
50933;BME280;36921;49.006;9.292;2022-08-21T03:00:24;98787.38;;;11.41;100.00
50933;BME280;36921;49.006;9.292;2022-08-21T03:02:50;98786.97;;;11.38;100.00
50933;BME280;36921;49.006;9.292;2022-08-21T03:05:17;98789.69;;;11.38;100.00
50933;BME280;36921;49.006;9.292;2022-08-21T03:07:44;98783.63;;;11.43;100.00
50933;BME280;36921;49.006;9.292;2022-08-21T03:10:10;98786.75;;;11.53;100.00
50933;BME280;36921;49.006;9.292;2022-08-21T03:12:35;98787.78;;;11.52;100.00
50933;BME280;36921;49.006;9.292;2022-08-21T03:15:04;98786.53;;;11.54;100.00
50933;BME280;36921;49.006;9.292;2022-08-21T03:17:30;98787.59;;;11.53;100.00
50933;BME280;36921;49.006;9.292;2022-08-21T03:19:56;98796.34;;;11.49;100.00
50933;BME280;36921;49.006;9.292;2022-08-21T03:22:22;98787.81;;;11.45;100.00
50933;BME280;36921;49.006;9.292;2022-08-21T03:24:47;98795.06;;;11.31;100.00
50933;BME280;36921;49.006;9.292;2022-08-21T03:27:12;98788.84;;;11.31;100.00
50933;BME280;36921;49.006;9.292;2022-08-21T03:29:39;98786.53;;;11.14;100.00
50933;BME280;36921;49.006;9.292;2022-08-21T03:32:04;98789.22;;;11.08;100.00
50933;BME280;36921;49.006;9.292;2022-08-21T03:34:30;98785.28;;;11.04;100.00
50933;BME280;36921;49.006;9.292;2022-08-21T03:36:55;98789.88;;;11.10;100.00
50933;BME280;36921;49.006;9.292;2022-08-21T03:39:21;98791.94;;;11.08;100.00
50933;BME280;36921;49.006;9.292;2022-08-21T03:41:46;98790.47;;;11.05;100.00
50933;BME280;36921;49.006;9.292;2022-08-21T03:44:12;98794.44;;;10.96;100.00
50933;BME280;36921;49.006;9.292;2022-08-21T03:46:38;98780.69;;;10.91;100.00
50933;BME280;36921;49.006;9.292;2022-08-21T03:49:06;98781.13;;;11.01;100.00
50933;BME280;36921;49.006;9.292;2022-08-21T03:51:31;98793.59;;;11.02;100.00
50933;BME280;36921;49.006;9.292;2022-08-21T03:53:57;98806.28;;;10.95;100.00
50933;BME280;36921;49.006;9.292;2022-08-21T03:56:23;98802.34;;;10.91;100.00
50933;BME280;36921;49.006;9.292;2022-08-21T03:58:49;98807.75;;;10.91;100.00
50933;BME280;36921;49.006;9.292;2022-08-21T04:01:14;98805.03;;;10.84;100.00
50933;BME280;36921;49.006;9.292;2022-08-21T04:03:40;98804.59;;;10.81;100.00
50933;BME280;36921;49.006;9.292;2022-08-21T04:06:05;98801.94;;;10.87;100.00
50933;BME280;36921;49.006;9.292;2022-08-21T04:08:31;98806.94;;;10.97;100.00
50933;BME280;36921;49.006;9.292;2022-08-21T04:10:57;98808.19;;;11.01;100.00
50933;BME280;36921;49.006;9.292;2022-08-21T04:13:24;98812.78;;;11.01;100.00
50933;BME280;36921;49.006;9.292;2022-08-21T04:15:51;98810.06;;;11.01;100.00
50933;BME280;36921;49.006;9.292;2022-08-21T04:18:17;98819.88;;;11.08;100.00
50933;BME280;36921;49.006;9.292;2022-08-21T04:20:44;98804.03;;;11.18;100.00
50933;BME280;36921;49.006;9.292;2022-08-21T04:23:12;98820.91;;;11.21;100.00
50933;BME280;36921;49.006;9.292;2022-08-21T04:25:38;98815.72;;;11.26;100.00
50933;BME280;36921;49.006;9.292;2022-08-21T04:28:03;98820.50;;;11.24;100.00
50933;BME280;36921;49.006;9.292;2022-08-21T04:30:29;98826.31;;;11.21;100.00
50933;BME280;36921;49.006;9.292;2022-08-21T04:32:56;98823.00;;;11.25;100.00
50933;BME280;36921;49.006;9.292;2022-08-21T04:35:23;98830.72;;;11.22;100.00
50933;BME280;36921;49.006;9.292;2022-08-21T04:37:49;98843.41;;;11.21;100.00
50933;BME280;36921;49.006;9.292;2022-08-21T04:40:17;98835.31;;;11.34;100.00
50933;BME280;36921;49.006;9.292;2022-08-21T04:42:48;98831.75;;;11.34;100.00
50933;BME280;36921;49.006;9.292;2022-08-21T04:45:20;98839.69;;;11.35;100.00
50933;BME280;36921;49.006;9.292;2022-08-21T04:47:51;98840.09;;;11.32;100.00
50933;BME280;36921;49.006;9.292;2022-08-21T04:50:18;98847.19;;;11.33;100.00
50933;BME280;36921;49.006;9.292;2022-08-21T04:52:43;98846.97;;;11.48;100.00
50933;BME280;36921;49.006;9.292;2022-08-21T04:55:10;98845.72;;;11.57;100.00
50933;BME280;36921;49.006;9.292;2022-08-21T04:57:36;98846.53;;;11.58;100.00
50933;BME280;36921;49.006;9.292;2022-08-21T05:00:03;98850.31;;;11.77;100.00
50933;BME280;36921;49.006;9.292;2022-08-21T05:02:30;98853.66;;;11.79;100.00
50933;BME280;36921;49.006;9.292;2022-08-21T05:04:58;98844.06;;;11.76;100.00
50933;BME280;36921;49.006;9.292;2022-08-21T05:07:28;98854.69;;;11.91;100.00
50933;BME280;36921;49.006;9.292;2022-08-21T05:09:54;98853.03;;;11.90;100.00
50933;BME280;36921;49.006;9.292;2022-08-21T05:14:49;98856.34;;;11.99;100.00
50933;BME280;36921;49.006;9.292;2022-08-21T05:17:14;98855.28;;;12.13;100.00
50933;BME280;36921;49.006;9.292;2022-08-21T05:19:40;98862.97;;;12.30;100.00
50933;BME280;36921;49.006;9.292;2022-08-21T05:22:05;98870.88;;;12.44;100.00
50933;BME280;36921;49.006;9.292;2022-08-21T05:24:31;98863.47;;;12.65;100.00
50933;BME280;36921;49.006;9.292;2022-08-21T05:26:57;98865.28;;;12.78;100.00
50933;BME280;36921;49.006;9.292;2022-08-21T05:29:22;98866.91;;;12.85;100.00
50933;BME280;36921;49.006;9.292;2022-08-21T05:31:48;98871.25;;;13.00;100.00
50933;BME280;36921;49.006;9.292;2022-08-21T05:34:19;98871.16;;;13.13;100.00
50933;BME280;36921;49.006;9.292;2022-08-21T05:36:45;98868.13;;;13.34;100.00
50933;BME280;36921;49.006;9.292;2022-08-21T05:39:10;98875.53;;;13.52;100.00
50933;BME280;36921;49.006;9.292;2022-08-21T05:41:36;98878.06;;;13.72;100.00
50933;BME280;36921;49.006;9.292;2022-08-21T05:44:01;98875.47;;;13.84;100.00
50933;BME280;36921;49.006;9.292;2022-08-21T05:46:27;98873.25;;;13.99;100.00
50933;BME280;36921;49.006;9.292;2022-08-21T05:48:52;98874.00;;;14.07;100.00
50933;BME280;36921;49.006;9.292;2022-08-21T05:51:17;98875.25;;;14.29;100.00
50933;BME280;36921;49.006;9.292;2022-08-21T05:53:43;98877.59;;;14.44;100.00
50933;BME280;36921;49.006;9.292;2022-08-21T05:56:10;98876.72;;;14.68;100.00
50933;BME280;36921;49.006;9.292;2022-08-21T05:58:36;98870.88;;;15.13;100.00
50933;BME280;36921;49.006;9.292;2022-08-21T06:01:03;98872.09;;;15.60;100.00
50933;BME280;36921;49.006;9.292;2022-08-21T06:03:33;98861.16;;;16.65;100.00
50933;BME280;36921;49.006;9.292;2022-08-21T06:05:59;98867.06;;;18.28;87.05
50933;BME280;36921;49.006;9.292;2022-08-21T06:08:25;98866.66;;;20.16;72.85
50933;BME280;36921;49.006;9.292;2022-08-21T06:10:52;98855.66;;;22.08;62.42
50933;BME280;36921;49.006;9.292;2022-08-21T06:13:19;98865.06;;;23.92;55.88
50933;BME280;36921;49.006;9.292;2022-08-21T06:15:45;98864.63;;;24.38;53.45
50933;BME280;36921;49.006;9.292;2022-08-21T06:18:11;98870.63;;;24.74;53.29
50933;BME280;36921;49.006;9.292;2022-08-21T06:20:37;98867.66;;;25.51;50.29
50933;BME280;36921;49.006;9.292;2022-08-21T06:23:03;98860.28;;;26.45;48.72
50933;BME280;36921;49.006;9.292;2022-08-21T06:25:29;98867.66;;;25.89;47.30
50933;BME280;36921;49.006;9.292;2022-08-21T06:28:03;98868.91;;;25.78;48.51
50933;BME280;36921;49.006;9.292;2022-08-21T06:30:31;98860.19;;;25.71;47.87
50933;BME280;36921;49.006;9.292;2022-08-21T06:32:57;98862.16;;;26.50;46.39
50933;BME280;36921;49.006;9.292;2022-08-21T06:35:22;98861.13;;;27.28;43.56
50933;BME280;36921;49.006;9.292;2022-08-21T06:37:49;98857.41;;;27.33;43.68
50933;BME280;36921;49.006;9.292;2022-08-21T06:40:15;98858.47;;;28.58;41.66
50933;BME280;36921;49.006;9.292;2022-08-21T06:42:40;98855.16;;;28.96;40.47
50933;BME280;36921;49.006;9.292;2022-08-21T06:45:06;98855.88;;;29.28;39.95
50933;BME280;36921;49.006;9.292;2022-08-21T06:47:31;98851.31;;;29.49;39.27
50933;BME280;36921;49.006;9.292;2022-08-21T06:49:56;98846.00;;;29.04;39.48
50933;BME280;36921;49.006;9.292;2022-08-21T06:52:22;98853.25;;;29.23;39.46
50933;BME280;36921;49.006;9.292;2022-08-21T06:54:47;98846.53;;;30.02;39.19
50933;BME280;36921;49.006;9.292;2022-08-21T06:57:13;98845.00;;;30.22;38.40
50933;BME280;36921;49.006;9.292;2022-08-21T06:59:38;98847.19;;;29.99;39.08
50933;BME280;36921;49.006;9.292;2022-08-21T07:02:04;98843.13;;;30.91;37.43
50933;BME280;36921;49.006;9.292;2022-08-21T07:04:29;98840.41;;;31.75;36.38
50933;BME280;36921;49.006;9.292;2022-08-21T07:06:55;98835.00;;;31.28;36.43
50933;BME280;36921;49.006;9.292;2022-08-21T07:09:20;98841.66;;;32.31;35.03
50933;BME280;36921;49.006;9.292;2022-08-21T07:11:49;98842.78;;;29.37;38.74
50933;BME280;36921;49.006;9.292;2022-08-21T07:14:15;98837.59;;;31.33;36.82
50933;BME280;36921;49.006;9.292;2022-08-21T07:16:41;98841.78;;;31.69;36.23
50933;BME280;36921;49.006;9.292;2022-08-21T07:19:06;98845.00;;;31.58;36.66
50933;BME280;36921;49.006;9.292;2022-08-21T07:21:32;98842.38;;;31.95;35.28
50933;BME280;36921;49.006;9.292;2022-08-21T07:23:57;98842.94;;;33.04;33.47
50933;BME280;36921;49.006;9.292;2022-08-21T07:26:23;98836.25;;;32.96;33.28
50933;BME280;36921;49.006;9.292;2022-08-21T07:28:50;98834.53;;;33.04;33.71
50933;BME280;36921;49.006;9.292;2022-08-21T07:31:17;98839.97;;;33.01;33.06
50933;BME280;36921;49.006;9.292;2022-08-21T07:33:44;98841.34;;;33.31;32.04
50933;BME280;36921;49.006;9.292;2022-08-21T07:36:10;98834.25;;;32.85;33.92
50933;BME280;36921;49.006;9.292;2022-08-21T07:38:35;98832.72;;;33.00;33.72
50933;BME280;36921;49.006;9.292;2022-08-21T07:41:02;98841.41;;;31.70;35.07
50933;BME280;36921;49.006;9.292;2022-08-21T07:43:29;98827.16;;;32.17;34.11
50933;BME280;36921;49.006;9.292;2022-08-21T07:45:55;98827.34;;;33.19;32.57
50933;BME280;36921;49.006;9.292;2022-08-21T07:48:21;98826.75;;;34.07;31.82
50933;BME280;36921;49.006;9.292;2022-08-21T07:50:47;98830.81;;;33.41;31.97
50933;BME280;36921;49.006;9.292;2022-08-21T07:53:14;98826.31;;;33.92;31.07
50933;BME280;36921;49.006;9.292;2022-08-21T07:55:39;98818.66;;;35.00;30.61
50933;BME280;36921;49.006;9.292;2022-08-21T07:58:05;98819.41;;;35.13;30.28
50933;BME280;36921;49.006;9.292;2022-08-21T08:00:30;98818.72;;;35.94;28.71
50933;BME280;36921;49.006;9.292;2022-08-21T08:02:56;98823.22;;;35.98;28.44
50933;BME280;36921;49.006;9.292;2022-08-21T08:05:26;98821.72;;;36.70;27.89
50933;BME280;36921;49.006;9.292;2022-08-21T08:07:52;98822.75;;;36.58;28.69
50933;BME280;36921;49.006;9.292;2022-08-21T08:10:18;98818.81;;;36.20;28.81
50933;BME280;36921;49.006;9.292;2022-08-21T08:12:45;98806.56;;;34.17;30.99
50933;BME280;36921;49.006;9.292;2022-08-21T08:15:14;98799.16;;;34.40;31.10
50933;BME280;36921;49.006;9.292;2022-08-21T08:17:40;98803.34;;;35.14;30.64
50933;BME280;36921;49.006;9.292;2022-08-21T08:20:08;98805.31;;;36.07;29.94
50933;BME280;36921;49.006;9.292;2022-08-21T08:22:34;98802.13;;;36.31;29.75
50933;BME280;36921;49.006;9.292;2022-08-21T08:25:01;98802.28;;;36.88;29.00
50933;BME280;36921;49.006;9.292;2022-08-21T08:27:27;98800.41;;;35.84;29.53
50933;BME280;36921;49.006;9.292;2022-08-21T08:29:53;98794.72;;;36.00;28.90
50933;BME280;36921;49.006;9.292;2022-08-21T08:32:19;98784.31;;;37.26;28.18
50933;BME280;36921;49.006;9.292;2022-08-21T08:34:44;98782.69;;;36.72;27.94
50933;BME280;36921;49.006;9.292;2022-08-21T08:37:12;98788.16;;;36.38;28.70
50933;BME280;36921;49.006;9.292;2022-08-21T08:39:37;98788.63;;;36.90;28.75
50933;BME280;36921;49.006;9.292;2022-08-21T08:42:20;98779.44;;;38.73;26.83
50933;BME280;36921;49.006;9.292;2022-08-21T08:44:55;98781.84;;;36.95;27.80
50933;BME280;36921;49.006;9.292;2022-08-21T08:47:22;98773.44;;;37.55;27.44
50933;BME280;36921;49.006;9.292;2022-08-21T08:49:55;98778.50;;;37.76;27.31
50933;BME280;36921;49.006;9.292;2022-08-21T08:52:35;98773.47;;;38.37;26.92
50933;BME280;36921;49.006;9.292;2022-08-21T08:55:09;98769.97;;;38.47;26.30
50933;BME280;36921;49.006;9.292;2022-08-21T08:57:37;98757.47;;;39.11;26.33
50933;BME280;36921;49.006;9.292;2022-08-21T09:00:10;98761.13;;;38.56;25.69
50933;BME280;36921;49.006;9.292;2022-08-21T09:02:40;98765.81;;;37.29;26.56
50933;BME280;36921;49.006;9.292;2022-08-21T09:05:07;98761.94;;;33.55;31.48
50933;BME280;36921;49.006;9.292;2022-08-21T09:11:01;98766.59;;;36.50;27.71
50933;BME280;36921;49.006;9.292;2022-08-21T09:19:25;98759.34;;;37.02;27.97
50933;BME280;36921;49.006;9.292;2022-08-21T09:24:37;98760.16;;;36.26;28.30
50933;BME280;36921;49.006;9.292;2022-08-21T09:27:11;98746.31;;;37.84;26.65
50933;BME280;36921;49.006;9.292;2022-08-21T09:29:40;98749.00;;;37.40;26.94
50933;BME280;36921;49.006;9.292;2022-08-21T09:32:46;98756.69;;;37.73;26.78
50933;BME280;36921;49.006;9.292;2022-08-21T09:35:14;98741.84;;;38.69;25.89
50933;BME280;36921;49.006;9.292;2022-08-21T09:38:00;98740.25;;;38.75;24.87
50933;BME280;36921;49.006;9.292;2022-08-21T09:45:40;98736.63;;;37.85;25.81
50933;BME280;36921;49.006;9.292;2022-08-21T09:48:17;98736.16;;;37.12;26.29
50933;BME280;36921;49.006;9.292;2022-08-21T09:50:44;98734.13;;;37.43;25.70
50933;BME280;36921;49.006;9.292;2022-08-21T09:53:20;98729.28;;;37.10;26.36
50933;BME280;36921;49.006;9.292;2022-08-21T09:56:14;98732.41;;;37.35;25.39
50933;BME280;36921;49.006;9.292;2022-08-21T09:58:59;98719.69;;;36.88;26.33
50933;BME280;36921;49.006;9.292;2022-08-21T10:01:25;98720.47;;;34.91;28.71
50933;BME280;36921;49.006;9.292;2022-08-21T10:04:07;98722.31;;;36.24;26.80
50933;BME280;36921;49.006;9.292;2022-08-21T10:06:32;98716.53;;;36.93;25.98
50933;BME280;36921;49.006;9.292;2022-08-21T10:09:19;98718.69;;;37.67;26.04
50933;BME280;36921;49.006;9.292;2022-08-21T10:17:04;98716.63;;;39.08;24.19
50933;BME280;36921;49.006;9.292;2022-08-21T10:22:08;98713.50;;;39.31;23.85
50933;BME280;36921;49.006;9.292;2022-08-21T10:25:02;98706.84;;;38.91;23.57
50933;BME280;36921;49.006;9.292;2022-08-21T10:27:37;98695.88;;;40.06;22.18
50933;BME280;36921;49.006;9.292;2022-08-21T10:30:11;98702.91;;;38.00;24.59
50933;BME280;36921;49.006;9.292;2022-08-21T10:35:40;98694.44;;;38.44;24.47
50933;BME280;36921;49.006;9.292;2022-08-21T10:50:24;98679.38;;;38.95;23.63
50933;BME280;36921;49.006;9.292;2022-08-21T10:53:51;98681.19;;;39.43;23.24
50933;BME280;36921;49.006;9.292;2022-08-21T10:55:56;98684.75;;;39.18;23.26
50933;BME280;36921;49.006;9.292;2022-08-21T10:58:43;98684.56;;;40.45;21.30
50933;BME280;36921;49.006;9.292;2022-08-21T11:01:15;98685.31;;;39.60;21.92
50933;BME280;36921;49.006;9.292;2022-08-21T11:03:46;98675.75;;;38.36;22.38
50933;BME280;36921;49.006;9.292;2022-08-21T11:06:25;98669.72;;;37.93;24.22
50933;BME280;36921;49.006;9.292;2022-08-21T11:09:04;98674.75;;;38.10;24.17
50933;BME280;36921;49.006;9.292;2022-08-21T11:11:41;98665.19;;;38.88;23.17
50933;BME280;36921;49.006;9.292;2022-08-21T11:16:56;98659.84;;;39.67;22.07
50933;BME280;36921;49.006;9.292;2022-08-21T11:19:33;98665.44;;;40.82;21.11
50933;BME280;36921;49.006;9.292;2022-08-21T11:24:52;98661.69;;;39.16;21.60
50933;BME280;36921;49.006;9.292;2022-08-21T11:27:26;98659.88;;;39.78;21.79
50933;BME280;36921;49.006;9.292;2022-08-21T11:29:55;98658.66;;;39.97;21.51
50933;BME280;36921;49.006;9.292;2022-08-21T11:43:43;98649.66;;;39.34;20.70
50933;BME280;36921;49.006;9.292;2022-08-21T11:46:20;98643.13;;;39.22;21.51
50933;BME280;36921;49.006;9.292;2022-08-21T11:51:20;98640.03;;;40.03;21.08
50933;BME280;36921;49.006;9.292;2022-08-21T11:53:54;98635.56;;;40.27;20.17
50933;BME280;36921;49.006;9.292;2022-08-21T11:56:37;98631.59;;;38.76;21.34
50933;BME280;36921;49.006;9.292;2022-08-21T11:59:22;98646.81;;;39.37;20.78
50933;BME280;36921;49.006;9.292;2022-08-21T12:01:50;98634.16;;;37.85;22.03
50933;BME280;36921;49.006;9.292;2022-08-21T12:04:34;98632.72;;;37.23;22.07
50933;BME280;36921;49.006;9.292;2022-08-21T12:07:15;98636.69;;;38.45;21.25
50933;BME280;36921;49.006;9.292;2022-08-21T12:09:53;98634.44;;;37.32;22.58
50933;BME280;36921;49.006;9.292;2022-08-21T12:12:30;98629.94;;;36.63;23.07
50933;BME280;36921;49.006;9.292;2022-08-21T12:15:24;98626.56;;;37.14;21.83
50933;BME280;36921;49.006;9.292;2022-08-21T12:17:59;98630.88;;;38.27;21.86
50933;BME280;36921;49.006;9.292;2022-08-21T12:25:37;98623.22;;;38.97;20.04
50933;BME280;36921;49.006;9.292;2022-08-21T12:28:08;98622.94;;;39.35;20.63
50933;BME280;36921;49.006;9.292;2022-08-21T12:30:37;98617.34;;;39.67;20.67
50933;BME280;36921;49.006;9.292;2022-08-21T12:33:05;98610.06;;;40.20;20.02
50933;BME280;36921;49.006;9.292;2022-08-21T12:35:40;98612.41;;;39.28;20.60
50933;BME280;36921;49.006;9.292;2022-08-21T12:38:18;98602.81;;;39.79;20.49
50933;BME280;36921;49.006;9.292;2022-08-21T12:41:06;98598.66;;;40.70;20.42
50933;BME280;36921;49.006;9.292;2022-08-21T12:43:47;98596.59;;;40.74;20.30
50933;BME280;36921;49.006;9.292;2022-08-21T12:46:21;98592.06;;;40.91;20.57
50933;BME280;36921;49.006;9.292;2022-08-21T12:49:26;98586.00;;;40.89;20.13
50933;BME280;36921;49.006;9.292;2022-08-21T12:52:02;98588.13;;;40.60;19.92
50933;BME280;36921;49.006;9.292;2022-08-21T12:54:31;98590.63;;;40.33;20.39
50933;BME280;36921;49.006;9.292;2022-08-21T12:57:01;98589.72;;;40.64;19.85
50933;BME280;36921;49.006;9.292;2022-08-21T12:59:28;98595.06;;;36.75;21.91
50933;BME280;36921;49.006;9.292;2022-08-21T13:01:59;98590.97;;;37.40;21.12
50933;BME280;36921;49.006;9.292;2022-08-21T13:04:35;98582.13;;;39.43;19.35
50933;BME280;36921;49.006;9.292;2022-08-21T13:07:06;98582.88;;;39.15;19.52
50933;BME280;36921;49.006;9.292;2022-08-21T13:09:44;98579.84;;;38.68;19.67
50933;BME280;36921;49.006;9.292;2022-08-21T13:12:09;98583.25;;;37.78;20.61
50933;BME280;36921;49.006;9.292;2022-08-21T13:14:41;98579.25;;;37.79;20.63
50933;BME280;36921;49.006;9.292;2022-08-21T13:17:08;98587.25;;;36.95;21.44
50933;BME280;36921;49.006;9.292;2022-08-21T13:19:35;98581.59;;;36.95;22.02
50933;BME280;36921;49.006;9.292;2022-08-21T13:22:02;98573.25;;;37.39;22.25
50933;BME280;36921;49.006;9.292;2022-08-21T13:24:30;98579.69;;;38.40;20.80
50933;BME280;36921;49.006;9.292;2022-08-21T13:26:57;98579.63;;;38.29;20.70
50933;BME280;36921;49.006;9.292;2022-08-21T13:29:28;98570.44;;;37.87;20.24
50933;BME280;36921;49.006;9.292;2022-08-21T13:31:57;98584.97;;;39.61;19.08
50933;BME280;36921;49.006;9.292;2022-08-21T13:34:25;98589.53;;;36.85;21.41
50933;BME280;36921;49.006;9.292;2022-08-21T13:36:55;98577.84;;;36.53;22.02
50933;BME280;36921;49.006;9.292;2022-08-21T13:39:23;98575.66;;;37.41;21.16
50933;BME280;36921;49.006;9.292;2022-08-21T13:41:52;98564.09;;;37.12;21.49
50933;BME280;36921;49.006;9.292;2022-08-21T13:44:43;98563.44;;;36.58;22.07
50933;BME280;36921;49.006;9.292;2022-08-21T13:47:10;98563.47;;;36.62;22.42
50933;BME280;36921;49.006;9.292;2022-08-21T13:49:42;98559.88;;;35.82;22.49
50933;BME280;36921;49.006;9.292;2022-08-21T13:52:25;98559.47;;;34.72;23.56
50933;BME280;36921;49.006;9.292;2022-08-21T13:55:09;98548.25;;;35.83;22.31
50933;BME280;36921;49.006;9.292;2022-08-21T13:57:36;98554.72;;;36.40;23.10
50933;BME280;36921;49.006;9.292;2022-08-21T14:00:17;98550.81;;;36.79;21.84
50933;BME280;36921;49.006;9.292;2022-08-21T14:02:46;98550.97;;;37.75;21.32
50933;BME280;36921;49.006;9.292;2022-08-21T14:05:26;98546.28;;;36.40;21.87
50933;BME280;36921;49.006;9.292;2022-08-21T14:10:30;98553.75;;;36.56;22.32
50933;BME280;36921;49.006;9.292;2022-08-21T14:13:02;98553.13;;;36.73;22.21
50933;BME280;36921;49.006;9.292;2022-08-21T14:15:31;98553.28;;;37.62;21.55